createdAt,value
2022-09-29T00:03:58.169Z,10.77
2022-09-29T00:08:50.681Z,8.37
2022-09-29T00:13:43.290Z,11.60
2022-09-29T00:18:37.196Z,10.33
2022-09-29T00:23:30.603Z,9.50
2022-09-29T00:28:23.087Z,12.70
2022-09-29T00:33:15.606Z,13.53
2022-09-29T00:38:09.484Z,8.90
2022-09-29T00:43:01.993Z,11.93
2022-09-29T00:47:58.956Z,7.10
2022-09-29T00:52:53.305Z,9.37
2022-09-29T00:57:49.692Z,10.53
2022-09-29T01:02:43.906Z,7.63
2022-09-29T01:07:36.584Z,11.03
2022-09-29T01:12:29.117Z,7.43
2022-09-29T01:17:23.819Z,9.87
2022-09-29T01:22:22.176Z,14.57
2022-09-29T01:27:23.183Z,14.03
2022-09-29T01:32:20.212Z,12.93
2022-09-29T01:37:17.439Z,11.10
2022-09-29T01:42:13.497Z,11.17
2022-09-29T01:47:09.231Z,6.73
2022-09-29T01:52:04.997Z,10.87
2022-09-29T01:57:00.567Z,13.50
2022-09-29T02:02:00.096Z,11.90
2022-09-29T02:06:56.288Z,9.57
2022-09-29T02:11:52.084Z,7.40
2022-09-29T02:16:48.935Z,6.87
2022-09-29T02:21:41.586Z,8.57
2022-09-29T02:26:34.903Z,5.33
2022-09-29T02:31:29.317Z,4.80
2022-09-29T02:36:27.549Z,6.37
2022-09-29T02:41:29.130Z,5.20
2022-09-29T02:46:30.153Z,6.97
2022-09-29T02:51:25.918Z,7.30
2022-09-29T02:56:21.484Z,5.73
2022-09-29T03:01:16.378Z,6.60
2022-09-29T03:06:09.166Z,4.57
2022-09-29T03:11:03.064Z,8.20
2022-09-29T03:15:55.624Z,11.70
2022-09-29T03:20:48.186Z,7.83
2022-09-29T03:25:41.823Z,13.70
2022-09-29T03:30:35.681Z,23.00
2022-09-29T03:35:28.224Z,24.80
2022-09-29T03:40:20.848Z,18.27
2022-09-29T03:45:13.382Z,16.07
2022-09-29T03:50:07.823Z,14.63
2022-09-29T03:55:00.358Z,11.30
2022-09-29T03:59:53.276Z,18.90
2022-09-29T04:04:45.792Z,17.30
2022-09-29T04:09:39.699Z,16.77
2022-09-29T04:14:32.257Z,14.10
2022-09-29T04:19:27.061Z,38.03
2022-09-29T04:24:19.590Z,40.27
2022-09-29T04:29:13.469Z,38.90
2022-09-29T04:34:05.998Z,47.50
2022-09-29T04:38:58.757Z,52.03
2022-09-29T04:43:51.310Z,35.40
2022-09-29T04:48:45.174Z,22.10
2022-09-29T04:53:37.829Z,15.67
2022-09-29T04:58:30.427Z,12.27
2022-09-29T05:03:23.551Z,15.33
2022-09-29T05:08:17.429Z,9.97
2022-09-29T05:13:10.480Z,11.63
2022-09-29T05:18:03.996Z,16.87
2022-09-29T05:22:58.563Z,17.43
2022-09-29T05:27:52.488Z,15.43
2022-09-29T05:32:46.030Z,11.43
2022-09-29T05:37:38.595Z,18.07
2022-09-29T05:42:31.843Z,32.50
2022-09-29T05:47:25.723Z,24.83
2022-09-29T05:52:18.521Z,16.97
2022-09-29T05:57:11.072Z,14.83
2022-09-29T06:02:03.705Z,15.27
2022-09-29T06:06:57.618Z,16.63
2022-09-29T06:11:50.218Z,11.90
2022-09-29T06:16:42.845Z,7.63
2022-09-29T06:21:37.708Z,6.27
2022-09-29T06:26:31.575Z,5.20
2022-09-29T06:31:25.202Z,5.50
2022-09-29T06:36:36.192Z,9.13
2022-09-29T06:41:30.084Z,9.90
2022-09-29T06:46:23.990Z,5.43
2022-09-29T06:51:16.494Z,8.47
2022-09-29T06:56:10.103Z,9.10
2022-09-29T07:01:03.430Z,6.30
2022-09-29T07:06:15.559Z,5.20
2022-09-29T07:11:10.416Z,6.60
2022-09-29T07:16:07.746Z,9.37
2022-09-29T07:21:01.626Z,5.60
2022-09-29T07:25:54.337Z,6.83
2022-09-29T07:30:46.898Z,7.40
2022-09-29T07:35:40.192Z,4.60
2022-09-29T07:40:34.258Z,4.00
2022-09-29T07:45:26.850Z,6.97
2022-09-29T07:50:19.361Z,4.40
2022-09-29T07:55:11.958Z,3.60
2022-09-29T08:00:06.483Z,3.93
2022-09-29T08:05:07.458Z,3.53
2022-09-29T08:10:12.802Z,3.60
2022-09-29T08:15:09.816Z,4.73
2022-09-29T08:20:02.458Z,4.43
2022-09-29T08:24:54.985Z,3.27
2022-09-29T08:29:47.756Z,4.70
2022-09-29T08:34:42.077Z,4.27
2022-09-29T08:39:35.735Z,4.43
2022-09-29T08:44:38.317Z,4.37
2022-09-29T08:49:36.627Z,3.90
2022-09-29T08:54:38.399Z,4.23
2022-09-29T08:59:32.445Z,3.70
2022-09-29T09:04:42.672Z,3.23
2022-09-29T09:09:52.713Z,2.80
2022-09-29T09:14:51.821Z,3.63
2022-09-29T09:19:50.976Z,4.90
2022-09-29T09:24:47.593Z,3.40
2022-09-29T09:29:43.809Z,4.30
2022-09-29T09:34:44.171Z,5.87
2022-09-29T09:39:38.583Z,4.03
2022-09-29T09:44:34.838Z,3.20
2022-09-29T09:49:31.278Z,4.83
2022-09-29T09:54:29.433Z,4.63
2022-09-29T09:59:31.948Z,6.17
2022-09-29T10:04:26.088Z,6.27
2022-09-29T10:09:20.566Z,3.50
2022-09-29T10:14:15.169Z,4.30
2022-09-29T10:19:07.811Z,4.30
2022-09-29T10:24:00.832Z,5.50
2022-09-29T10:28:56.816Z,3.30
2022-09-29T10:34:07.306Z,3.70
2022-09-29T10:39:03.242Z,3.53
2022-09-29T10:43:57.687Z,4.20
2022-09-29T10:49:08.472Z,2.97
2022-09-29T10:54:07.537Z,5.23
2022-09-29T10:59:05.780Z,2.63
2022-09-29T11:04:01.664Z,3.10
2022-09-29T11:08:58.256Z,3.67
2022-09-29T11:13:52.752Z,3.30
2022-09-29T11:18:48.018Z,2.93
2022-09-29T11:23:44.353Z,3.20
2022-09-29T11:28:59.938Z,3.30
2022-09-29T11:34:00.610Z,3.87
2022-09-29T11:38:57.954Z,4.07
2022-09-29T11:43:52.901Z,2.63
2022-09-29T11:49:04.607Z,4.00
2022-09-29T11:54:06.673Z,3.07
2022-09-29T11:59:07.857Z,2.90
2022-09-29T12:04:11.328Z,2.40
2022-09-29T12:09:12.204Z,3.30
2022-09-29T12:14:07.363Z,3.10
2022-09-29T12:19:02.957Z,2.80
2022-09-29T12:23:57.639Z,2.17
2022-09-29T12:28:52.339Z,1.97
2022-09-29T12:33:47.202Z,3.30
2022-09-29T12:38:42.418Z,2.70
2022-09-29T12:43:42.464Z,2.40
2022-09-29T12:48:47.433Z,3.03
2022-09-29T12:53:44.107Z,3.63
2022-09-29T12:58:40.252Z,2.00
2022-09-29T13:03:50.615Z,2.90
2022-09-29T13:08:52.813Z,3.73
2022-09-29T13:14:09.218Z,2.80
2022-09-29T13:19:26.039Z,3.83
2022-09-29T13:24:33.822Z,4.30
2022-09-29T13:29:27.587Z,3.20
2022-09-29T13:34:22.055Z,3.03
2022-09-29T13:39:21.735Z,2.00
2022-09-29T13:44:23.945Z,2.77
2022-09-29T13:49:23.787Z,3.03
2022-09-29T13:54:26.776Z,2.33
2022-09-29T13:59:22.237Z,6.00
2022-09-29T14:04:44.892Z,2.83
2022-09-29T14:09:40.753Z,2.37
2022-09-29T14:14:55.202Z,3.20
2022-09-29T14:19:50.945Z,2.73
2022-09-29T14:24:47.240Z,3.40
2022-09-29T14:29:42.833Z,6.17
2022-09-29T14:34:35.713Z,3.80
2022-09-29T14:39:28.745Z,20.30
2022-09-29T14:44:25.425Z,4.10
2022-09-29T14:49:56.655Z,2.90
2022-09-29T14:54:56.192Z,4.10
2022-09-29T14:59:57.616Z,3.60
2022-09-29T15:04:50.590Z,2.27
2022-09-29T15:09:46.186Z,2.30
2022-09-29T15:14:41.771Z,2.33
2022-09-29T15:19:43.207Z,3.47
2022-09-29T15:24:41.860Z,2.90
2022-09-29T15:29:34.364Z,2.60
2022-09-29T15:34:26.921Z,3.47
2022-09-29T15:39:42.425Z,2.90
2022-09-29T15:44:34.983Z,3.27
2022-09-29T15:49:28.349Z,3.40
2022-09-29T15:54:20.925Z,9.30
2022-09-29T15:59:20.368Z,2.70
2022-09-29T16:04:13.118Z,2.67
2022-09-29T16:09:08.152Z,5.00
2022-09-29T16:14:03.006Z,3.43
2022-09-29T16:19:00.038Z,3.40
2022-09-29T16:24:00.885Z,2.13
2022-09-29T16:29:01.374Z,5.13
2022-09-29T16:33:54.993Z,6.47
2022-09-29T16:38:51.452Z,5.40
2022-09-29T16:43:45.037Z,3.03
2022-09-29T16:48:40.732Z,3.60
2022-09-29T16:53:34.198Z,4.03
2022-09-29T16:58:28.864Z,6.40
2022-09-29T17:03:21.380Z,29.23
2022-09-29T17:08:16.118Z,3.53
2022-09-29T17:13:10.182Z,3.40
2022-09-29T17:18:04.282Z,11.20
2022-09-29T17:22:57.115Z,3.97
2022-09-29T17:28:07.037Z,8.10
2022-09-29T17:33:00.392Z,5.57
2022-09-29T17:37:55.274Z,6.70
2022-09-29T17:42:47.817Z,8.07
2022-09-29T17:47:40.643Z,6.30
2022-09-29T17:52:33.204Z,11.87
2022-09-29T17:57:28.911Z,7.60
2022-09-29T18:02:21.477Z,7.33
2022-09-29T18:07:14.071Z,23.63
2022-09-29T18:12:06.649Z,9.60
2022-09-29T18:17:00.511Z,15.67
2022-09-29T18:21:53.020Z,15.80
2022-09-29T18:26:46.245Z,9.43
2022-09-29T18:31:38.796Z,8.50
2022-09-29T18:36:32.844Z,6.20
2022-09-29T18:41:25.417Z,8.57
2022-09-29T18:46:18.606Z,14.97
2022-09-29T18:51:13.642Z,8.50
2022-09-29T18:56:07.796Z,14.60
2022-09-29T19:01:01.043Z,13.50
2022-09-29T19:05:54.043Z,6.53
2022-09-29T19:10:49.357Z,8.20
2022-09-29T19:15:43.871Z,11.53
2022-09-29T19:20:36.552Z,8.57
2022-09-29T19:25:30.460Z,8.83
2022-09-29T19:30:23.627Z,7.47
2022-09-29T19:35:19.453Z,7.47
2022-09-29T19:40:14.533Z,8.53
2022-09-29T19:45:08.847Z,13.70
2022-09-29T19:50:15.658Z,14.20
2022-09-29T19:55:12.681Z,13.13
2022-09-29T20:00:05.410Z,11.90
2022-09-29T20:05:05.271Z,11.90
2022-09-29T20:09:57.854Z,9.23
2022-09-29T20:14:51.696Z,8.93
2022-09-29T20:19:44.572Z,10.00
2022-09-29T20:24:37.172Z,7.60
2022-09-29T20:29:30.480Z,14.23
2022-09-29T20:34:24.414Z,8.30
2022-09-29T20:39:18.645Z,10.77
2022-09-29T20:44:11.242Z,11.13
2022-09-29T20:49:04.827Z,9.40
2022-09-29T20:53:59.393Z,11.23
2022-09-29T20:58:52.451Z,12.23
2022-09-29T21:03:48.657Z,9.37
2022-09-29T21:08:41.699Z,9.80
2022-09-29T21:13:36.117Z,12.57
2022-09-29T21:18:29.056Z,13.70
2022-09-29T21:23:23.126Z,13.13
2022-09-29T21:28:15.676Z,13.60
2022-09-29T21:33:11.007Z,11.93
2022-09-29T21:38:03.572Z,11.17
2022-09-29T21:42:56.069Z,8.80
2022-09-29T21:48:06.156Z,9.50
2022-09-29T21:53:00.136Z,8.30
2022-09-29T21:57:54.245Z,10.50
2022-09-29T22:02:46.784Z,12.97
2022-09-29T22:07:39.386Z,11.13
2022-09-29T22:12:33.262Z,9.70
2022-09-29T22:17:25.920Z,12.20
2022-09-29T22:22:18.448Z,11.97
2022-09-29T22:27:11.880Z,13.83
2022-09-29T22:32:05.787Z,12.87
2022-09-29T22:36:58.333Z,16.27
2022-09-29T22:41:52.489Z,11.13
2022-09-29T22:46:45.035Z,12.30
2022-09-29T22:51:39.086Z,14.20
2022-09-29T22:56:31.584Z,16.77
2022-09-29T23:01:24.169Z,13.60
2022-09-29T23:06:16.957Z,12.83
2022-09-29T23:11:17.437Z,14.80
2022-09-29T23:16:12.821Z,11.63
2022-09-29T23:21:06.300Z,17.10
2022-09-29T23:25:58.880Z,16.73
2022-09-29T23:30:52.963Z,15.40
2022-09-29T23:35:45.669Z,16.53
2022-09-29T23:40:38.299Z,19.07
2022-09-29T23:45:30.801Z,12.73
2022-09-29T23:50:24.747Z,14.20
2022-09-29T23:55:17.361Z,14.27
